SAZB/BHI METAR and TAF weather

Enter ICAO airport designator
Station Type Date Time Source
SAZB METAR 2019/02/07 19:35 UTC NOAA

SAZB 071935Z 16010KT 9999 BKN015 22/19 Q1008


Station Type Date Time Source
SAZB Decoded METAR 2019/02/07 19:35 UTC NOAA

Bahia Blanca Aerodrome, Argentina (SAZB) 38-44S 062-10W 83M
Feb 07, 2019 - 02:35 PM EST / 2019.02.07 1935 UTC
Wind: from the SSE (160 degrees) at 12 MPH (10 KT):0
Visibility: greater than 7 mile(s):0
Sky conditions: mostly cloudy
Temperature: 71 F (22 C)
Dew Point: 66 F (19 C)
Relative Humidity: 83%
Pressure (altimeter): 29.77 in. Hg (1008 hPa)
ob: SAZB 071935Z 16010KT 9999 BKN015 22/19 Q1008
cycle: 19

Station Type Date Time Source
SAZB TAF 2019/02/11 06:18 UTC NOAA

TAF SAZB 110500Z 1106/1206 14015KT 9999 BKN025 OVC060 TX20/1117Z TN12/1110Z
BECMG 1111/1113 19020KT 9999 SCT030
BECMG 1123/1201 15015KT SCT020


Example: see airport list